createdAt,value
2023-03-03T00:03:12.359Z,-0.10
2023-03-03T00:07:29.508Z,-0.10
2023-03-03T00:11:49.986Z,0.00
2023-03-03T00:16:15.107Z,0.00
2023-03-03T00:20:40.125Z,-0.10
2023-03-03T00:25:21.043Z,-0.10
2023-03-03T00:29:44.988Z,0.00
2023-03-03T00:34:20.203Z,-0.10
2023-03-03T00:38:37.340Z,-0.10
2023-03-03T00:42:57.692Z,0.00
2023-03-03T00:47:32.728Z,-0.20
2023-03-03T00:51:49.927Z,-0.10
2023-03-03T00:56:07.239Z,-0.10
2023-03-03T01:00:24.359Z,-0.10
2023-03-03T01:04:43.478Z,-0.10
2023-03-03T01:09:00.747Z,0.00
2023-03-03T01:13:20.473Z,-0.20
2023-03-03T01:17:39.845Z,0.00
2023-03-03T01:21:57.075Z,0.00
2023-03-03T01:26:14.351Z,-0.10
2023-03-03T01:30:32.398Z,-0.10
2023-03-03T01:34:49.642Z,-0.20
2023-03-03T01:39:06.714Z,-0.30
2023-03-03T01:43:27.576Z,-0.30
2023-03-03T01:47:53.681Z,-0.20
2023-03-03T01:52:35.848Z,-0.20
2023-03-03T01:56:55.906Z,-0.20
2023-03-03T02:01:19.023Z,-0.20
2023-03-03T02:05:36.878Z,-0.40
2023-03-03T02:10:07.938Z,-0.30
2023-03-03T02:14:25.217Z,-0.50
2023-03-03T02:18:42.497Z,-0.40
2023-03-03T02:23:15.972Z,-0.50
2023-03-03T02:27:33.881Z,-0.40
2023-03-03T02:31:51.133Z,-0.50
2023-03-03T02:36:12.779Z,-0.40
2023-03-03T02:40:33.265Z,-0.50
2023-03-03T02:44:50.449Z,-0.50
2023-03-03T02:49:10.505Z,-0.50
2023-03-03T02:53:27.620Z,-0.50
2023-03-03T02:57:44.707Z,-0.40
2023-03-03T03:02:01.870Z,-0.30
2023-03-03T03:06:19.685Z,-0.40
2023-03-03T03:10:37.065Z,-0.50
2023-03-03T03:14:54.137Z,-0.50
2023-03-03T03:19:11.228Z,-0.50
2023-03-03T03:23:28.411Z,-0.60
2023-03-03T03:27:45.482Z,-0.60
2023-03-03T03:32:02.606Z,-0.60
2023-03-03T03:36:20.395Z,-0.60
2023-03-03T03:40:37.840Z,-0.60
2023-03-03T03:44:54.940Z,-0.70
2023-03-03T03:49:12.122Z,-0.70
2023-03-03T03:53:29.398Z,-0.60
2023-03-03T03:57:46.465Z,-0.60
2023-03-03T04:02:03.739Z,-0.50
2023-03-03T04:06:20.911Z,-0.60
2023-03-03T04:10:38.058Z,-0.70
2023-03-03T04:14:55.199Z,-0.60
2023-03-03T04:19:12.305Z,-0.70
2023-03-03T04:23:29.353Z,-0.60
2023-03-03T04:27:46.510Z,-0.40
2023-03-03T04:32:03.647Z,-0.50
2023-03-03T04:36:21.454Z,-0.50
2023-03-03T04:40:41.785Z,-0.50
2023-03-03T04:44:59.016Z,-0.40
2023-03-03T04:49:16.115Z,-0.40
2023-03-03T04:53:33.256Z,-0.40
2023-03-03T04:57:50.379Z,-0.40
2023-03-03T05:02:07.505Z,-0.30
2023-03-03T05:06:24.684Z,-0.30
2023-03-03T05:10:41.755Z,-0.40
2023-03-03T05:14:58.870Z,-0.50
2023-03-03T05:19:16.220Z,-0.50
2023-03-03T05:23:33.382Z,-0.60
2023-03-03T05:27:50.533Z,-0.60
2023-03-03T05:32:07.772Z,-0.60
2023-03-03T05:36:25.151Z,-0.70
2023-03-03T05:40:43.732Z,-0.80
2023-03-03T05:45:00.838Z,-0.80
2023-03-03T05:49:18.274Z,-0.80
2023-03-03T05:53:35.449Z,-0.80
2023-03-03T05:57:52.538Z,-0.90
2023-03-03T06:02:09.809Z,-0.90
2023-03-03T06:06:28.184Z,-0.90
2023-03-03T06:10:45.259Z,-0.80
2023-03-03T06:15:02.358Z,-0.70
2023-03-03T06:19:19.456Z,-0.90
2023-03-03T06:23:36.533Z,-0.80
2023-03-03T06:27:53.902Z,-0.70
2023-03-03T06:32:11.509Z,-0.70
2023-03-03T06:36:28.723Z,-0.70
2023-03-03T06:40:46.948Z,-0.70
2023-03-03T06:45:04.523Z,-0.80
2023-03-03T06:49:21.602Z,-0.80
2023-03-03T06:53:38.728Z,-0.70
2023-03-03T06:57:55.947Z,-0.80
2023-03-03T07:02:17.641Z,-0.70
2023-03-03T07:06:35.161Z,-0.70
2023-03-03T07:10:53.018Z,-0.60
2023-03-03T07:15:15.855Z,-0.60
2023-03-03T07:19:36.354Z,-0.70
2023-03-03T07:23:54.278Z,-0.70
2023-03-03T07:28:23.083Z,-0.60
2023-03-03T07:32:43.599Z,-0.60
2023-03-03T07:37:13.240Z,-0.60
2023-03-03T07:41:30.978Z,-0.60
2023-03-03T07:45:48.105Z,-0.60
2023-03-03T07:50:16.498Z,-0.50
2023-03-03T07:54:35.723Z,-0.50
2023-03-03T07:58:53.121Z,-0.60
2023-03-03T08:03:18.382Z,-0.50
2023-03-03T08:07:36.645Z,-0.50
2023-03-03T08:11:57.794Z,-0.50
2023-03-03T08:16:14.889Z,-0.70
2023-03-03T08:20:34.955Z,-0.50
2023-03-03T08:24:52.056Z,-0.50
2023-03-03T08:29:09.324Z,-0.40
2023-03-03T08:33:26.429Z,-0.50
2023-03-03T08:37:43.503Z,-0.30
2023-03-03T08:42:00.637Z,-0.40
2023-03-03T08:46:17.757Z,-0.40
2023-03-03T08:50:34.920Z,-0.30
2023-03-03T08:54:52.174Z,-0.30
2023-03-03T08:59:09.256Z,-0.20
2023-03-03T09:03:26.435Z,-0.20
2023-03-03T09:07:47.791Z,-0.20
2023-03-03T09:12:17.247Z,-0.20
2023-03-03T09:16:39.190Z,-0.20
2023-03-03T09:20:59.337Z,-0.10
2023-03-03T09:25:31.723Z,-0.20
2023-03-03T09:29:49.075Z,0.00
2023-03-03T09:34:23.662Z,-0.20
2023-03-03T09:38:45.622Z,-0.10
2023-03-03T09:43:24.747Z,-0.10
2023-03-03T09:48:20.042Z,-0.10
2023-03-03T09:52:46.278Z,0.00
2023-03-03T09:57:14.517Z,0.00
2023-03-03T10:01:59.905Z,0.10
2023-03-03T10:06:27.175Z,0.20
2023-03-03T10:10:56.602Z,0.10
2023-03-03T10:15:46.760Z,0.30
2023-03-03T10:20:50.755Z,0.10
2023-03-03T10:25:16.251Z,0.20
2023-03-03T10:29:43.708Z,0.10
2023-03-03T10:34:27.375Z,0.20
2023-03-03T10:39:13.814Z,0.10
2023-03-03T10:43:49.319Z,0.10
2023-03-03T10:48:38.784Z,0.30
2023-03-03T10:53:03.895Z,0.10
2023-03-03T10:57:55.253Z,0.10
2023-03-03T11:02:32.111Z,0.00
2023-03-03T11:07:22.410Z,0.00
2023-03-03T11:11:58.891Z,0.20
2023-03-03T11:16:30.542Z,0.20
2023-03-03T11:21:05.575Z,0.10
2023-03-03T11:25:44.175Z,-0.10
2023-03-03T11:30:26.069Z,0.00
2023-03-03T11:35:07.725Z,-0.10
2023-03-03T11:39:27.613Z,-0.10
2023-03-03T11:43:56.378Z,-0.20
2023-03-03T11:48:35.975Z,0.00
2023-03-03T11:53:13.698Z,0.00
2023-03-03T11:57:48.246Z,0.10
2023-03-03T12:02:44.016Z,0.00
2023-03-03T12:07:23.483Z,0.10
2023-03-03T12:11:55.544Z,0.20
2023-03-03T12:16:31.158Z,0.00
2023-03-03T12:21:08.515Z,-0.10
2023-03-03T12:25:42.621Z,0.00
2023-03-03T12:30:13.315Z,-0.10
2023-03-03T12:34:59.599Z,-0.10
2023-03-03T12:39:35.717Z,0.00
2023-03-03T12:44:18.045Z,-0.20
2023-03-03T12:48:43.680Z,0.00
2023-03-03T12:53:17.877Z,-0.20
2023-03-03T12:58:02.791Z,-0.30
2023-03-03T13:02:35.163Z,-0.20
2023-03-03T13:07:14.714Z,-0.10
2023-03-03T13:11:42.579Z,-0.30
2023-03-03T13:16:10.229Z,-0.30
2023-03-03T13:20:42.539Z,-0.40
2023-03-03T13:25:24.960Z,-0.20
2023-03-03T13:29:48.822Z,-0.10
2023-03-03T13:34:08.716Z,-0.10
2023-03-03T13:38:30.438Z,0.10
2023-03-03T13:42:52.705Z,0.30
2023-03-03T13:47:27.331Z,0.40
2023-03-03T13:51:51.281Z,0.40
2023-03-03T13:56:32.278Z,0.30
2023-03-03T14:00:57.637Z,0.10
2023-03-03T14:05:22.704Z,0.40
2023-03-03T14:09:57.852Z,0.50
2023-03-03T14:14:45.209Z,0.40
2023-03-03T14:19:17.424Z,0.50
2023-03-03T14:24:03.303Z,0.20
2023-03-03T14:28:23.517Z,0.40
2023-03-03T14:32:45.732Z,0.60
2023-03-03T14:37:27.660Z,0.70
2023-03-03T14:41:44.868Z,0.80
2023-03-03T14:46:33.565Z,0.70
2023-03-03T14:50:58.989Z,0.70
2023-03-03T14:55:34.579Z,0.90
2023-03-03T15:00:00.557Z,0.90
2023-03-03T15:04:17.669Z,0.50
2023-03-03T15:08:37.153Z,0.60
2023-03-03T15:12:54.837Z,0.80
2023-03-03T15:17:20.709Z,1.00
2023-03-03T15:21:57.562Z,1.00
2023-03-03T15:26:45.563Z,0.90
2023-03-03T15:31:37.835Z,0.90
2023-03-03T15:36:25.543Z,0.80
2023-03-03T15:40:54.136Z,0.80
2023-03-03T15:45:29.946Z,0.80
2023-03-03T15:50:23.026Z,0.80
2023-03-03T15:54:48.473Z,0.90
2023-03-03T15:59:45.069Z,0.90
2023-03-03T16:04:14.415Z,0.90
2023-03-03T16:08:48.461Z,0.90
2023-03-03T16:13:36.256Z,0.90
2023-03-03T16:18:03.976Z,0.90
2023-03-03T16:22:32.458Z,0.90
2023-03-03T16:27:13.346Z,0.90
2023-03-03T16:31:57.739Z,0.80
2023-03-03T16:36:17.725Z,0.80
2023-03-03T16:40:55.601Z,0.70
2023-03-03T16:45:28.965Z,0.70
2023-03-03T16:49:55.850Z,0.60
2023-03-03T16:54:34.613Z,0.60
2023-03-03T16:59:44.914Z,0.60
2023-03-03T17:04:35.884Z,0.60
2023-03-03T17:09:09.485Z,0.60
2023-03-03T17:13:44.994Z,0.60
2023-03-03T17:18:28.778Z,0.60
2023-03-03T17:23:00.975Z,0.50
2023-03-03T17:27:48.705Z,0.60
2023-03-03T17:32:15.276Z,0.60
2023-03-03T17:37:10.503Z,0.60
2023-03-03T17:41:49.263Z,0.50
2023-03-03T17:46:20.002Z,0.40
2023-03-03T17:51:07.358Z,0.40
2023-03-03T17:55:53.572Z,0.50
2023-03-03T18:00:31.912Z,0.60
2023-03-03T18:05:07.906Z,0.60
2023-03-03T18:09:32.667Z,0.70
2023-03-03T18:14:15.732Z,0.70
2023-03-03T18:18:54.303Z,0.60
2023-03-03T18:23:29.926Z,0.60
2023-03-03T18:28:15.654Z,0.60
2023-03-03T18:32:57.131Z,0.70
2023-03-03T18:37:41.830Z,0.80
2023-03-03T18:42:38.056Z,0.60
2023-03-03T18:46:56.053Z,0.70
2023-03-03T18:51:39.074Z,0.60
2023-03-03T18:55:58.550Z,0.60
2023-03-03T19:00:29.205Z,0.70
2023-03-03T19:05:18.282Z,0.70
2023-03-03T19:10:01.392Z,0.70
2023-03-03T19:14:31.355Z,0.60
2023-03-03T19:18:53.942Z,0.50
2023-03-03T19:23:18.250Z,0.50
2023-03-03T19:28:01.530Z,0.40
2023-03-03T19:32:21.530Z,0.40
2023-03-03T19:36:59.773Z,0.50
2023-03-03T19:41:40.315Z,0.50
2023-03-03T19:46:29.623Z,0.60
2023-03-03T19:50:52.697Z,0.50
2023-03-03T19:55:24.787Z,0.60
2023-03-03T20:00:00.273Z,0.70
2023-03-03T20:04:52.240Z,0.60
2023-03-03T20:09:33.344Z,0.70
2023-03-03T20:14:08.068Z,0.70
2023-03-03T20:18:40.181Z,0.70
2023-03-03T20:23:22.316Z,0.50
2023-03-03T20:28:02.693Z,0.60
2023-03-03T20:32:52.992Z,0.60
2023-03-03T20:37:21.521Z,0.50
2023-03-03T20:41:54.877Z,0.50
2023-03-03T20:46:29.000Z,0.50
2023-03-03T20:51:05.378Z,0.60
2023-03-03T20:55:52.320Z,0.60
2023-03-03T21:00:22.815Z,0.60
2023-03-03T21:04:40.004Z,0.60
2023-03-03T21:08:57.698Z,0.60
2023-03-03T21:13:41.279Z,0.50
2023-03-03T21:17:59.619Z,0.50
2023-03-03T21:22:17.126Z,0.40
2023-03-03T21:26:44.242Z,0.50
2023-03-03T21:31:10.059Z,0.50
2023-03-03T21:35:27.197Z,0.40
2023-03-03T21:39:44.478Z,0.40
2023-03-03T21:44:01.592Z,0.40
2023-03-03T21:48:18.692Z,0.40
2023-03-03T21:52:35.766Z,0.40
2023-03-03T21:56:53.454Z,0.30
2023-03-03T22:01:10.658Z,0.40
2023-03-03T22:05:27.740Z,0.40
2023-03-03T22:09:44.811Z,0.30
2023-03-03T22:14:02.213Z,0.30
2023-03-03T22:18:20.176Z,0.30
2023-03-03T22:22:37.254Z,0.30
2023-03-03T22:26:54.320Z,0.30
2023-03-03T22:31:11.417Z,0.30
2023-03-03T22:35:28.535Z,0.20
2023-03-03T22:39:45.632Z,0.30
2023-03-03T22:44:02.707Z,0.30
2023-03-03T22:48:19.799Z,0.20
2023-03-03T22:52:36.980Z,0.20
2023-03-03T22:56:54.069Z,0.10
2023-03-03T23:01:11.190Z,0.10
2023-03-03T23:05:28.315Z,0.10
2023-03-03T23:09:45.396Z,0.10
2023-03-03T23:14:02.485Z,0.00
2023-03-03T23:18:19.640Z,0.10
2023-03-03T23:22:36.862Z,0.00
2023-03-03T23:26:57.494Z,-0.10
2023-03-03T23:31:14.622Z,-0.10
2023-03-03T23:35:31.794Z,0.00
2023-03-03T23:39:48.971Z,0.00
2023-03-03T23:44:06.245Z,0.00
2023-03-03T23:48:23.305Z,0.10
2023-03-03T23:52:40.533Z,0.10
2023-03-03T23:56:58.002Z,0.20
